sensor_id;sensor_type;location;lat;lon;timestamp;P1;durP1;ratioP1;P2;durP2;ratioP2
2362;SDS011;64265;51.664;7.626;2023-04-06T00:02:24;1.10;;;0.90;;
2362;SDS011;64265;51.664;7.626;2023-04-06T00:04:50;1.35;;;1.25;;
2362;SDS011;64265;51.664;7.626;2023-04-06T00:07:18;2.10;;;1.10;;
2362;SDS011;64265;51.664;7.626;2023-04-06T00:09:45;1.38;;;1.10;;
2362;SDS011;64265;51.664;7.626;2023-04-06T00:12:12;1.15;;;1.05;;
2362;SDS011;64265;51.664;7.626;2023-04-06T00:14:38;1.45;;;1.00;;
2362;SDS011;64265;51.664;7.626;2023-04-06T00:17:06;1.65;;;1.23;;
2362;SDS011;64265;51.664;7.626;2023-04-06T00:19:32;1.63;;;1.48;;
2362;SDS011;64265;51.664;7.626;2023-04-06T00:21:59;1.40;;;1.20;;
2362;SDS011;64265;51.664;7.626;2023-04-06T00:24:28;1.10;;;1.00;;
2362;SDS011;64265;51.664;7.626;2023-04-06T00:26:55;1.67;;;1.35;;
2362;SDS011;64265;51.664;7.626;2023-04-06T00:29:21;1.42;;;1.33;;
2362;SDS011;64265;51.664;7.626;2023-04-06T00:31:48;1.25;;;1.00;;
2362;SDS011;64265;51.664;7.626;2023-04-06T00:34:15;1.45;;;1.10;;
2362;SDS011;64265;51.664;7.626;2023-04-06T00:36:41;1.25;;;1.08;;
2362;SDS011;64265;51.664;7.626;2023-04-06T00:39:08;3.90;;;0.90;;
2362;SDS011;64265;51.664;7.626;2023-04-06T00:41:36;2.20;;;1.45;;
2362;SDS011;64265;51.664;7.626;2023-04-06T00:44:04;1.30;;;1.10;;
2362;SDS011;64265;51.664;7.626;2023-04-06T00:46:31;2.00;;;1.20;;
2362;SDS011;64265;51.664;7.626;2023-04-06T00:48:58;1.30;;;1.20;;
2362;SDS011;64265;51.664;7.626;2023-04-06T00:51:25;2.28;;;1.20;;
2362;SDS011;64265;51.664;7.626;2023-04-06T00:53:51;1.20;;;1.00;;
2362;SDS011;64265;51.664;7.626;2023-04-06T00:56:19;1.48;;;1.23;;
2362;SDS011;64265;51.664;7.626;2023-04-06T00:58:47;1.17;;;1.05;;
2362;SDS011;64265;51.664;7.626;2023-04-06T01:01:14;1.45;;;1.10;;
2362;SDS011;64265;51.664;7.626;2023-04-06T01:03:41;1.10;;;1.00;;
2362;SDS011;64265;51.664;7.626;2023-04-06T01:06:09;1.50;;;1.17;;
2362;SDS011;64265;51.664;7.626;2023-04-06T01:08:36;2.15;;;1.60;;
2362;SDS011;64265;51.664;7.626;2023-04-06T01:11:02;1.30;;;1.10;;
2362;SDS011;64265;51.664;7.626;2023-04-06T01:13:29;1.50;;;1.40;;
2362;SDS011;64265;51.664;7.626;2023-04-06T01:15:57;1.27;;;1.17;;
2362;SDS011;64265;51.664;7.626;2023-04-06T01:18:27;1.30;;;1.20;;
2362;SDS011;64265;51.664;7.626;2023-04-06T01:20:55;1.52;;;1.00;;
2362;SDS011;64265;51.664;7.626;2023-04-06T01:23:23;2.70;;;1.30;;
2362;SDS011;64265;51.664;7.626;2023-04-06T01:25:49;1.23;;;1.13;;
2362;SDS011;64265;51.664;7.626;2023-04-06T01:28:16;1.27;;;1.17;;
2362;SDS011;64265;51.664;7.626;2023-04-06T01:30:43;1.42;;;1.30;;
2362;SDS011;64265;51.664;7.626;2023-04-06T01:33:09;1.20;;;1.10;;
2362;SDS011;64265;51.664;7.626;2023-04-06T01:35:36;1.20;;;1.00;;
2362;SDS011;64265;51.664;7.626;2023-04-06T01:38:03;1.60;;;1.20;;
2362;SDS011;64265;51.664;7.626;2023-04-06T01:40:31;1.20;;;1.10;;
2362;SDS011;64265;51.664;7.626;2023-04-06T01:42:58;1.48;;;1.20;;
2362;SDS011;64265;51.664;7.626;2023-04-06T01:45:25;1.50;;;1.17;;
2362;SDS011;64265;51.664;7.626;2023-04-06T01:47:51;1.55;;;1.38;;
2362;SDS011;64265;51.664;7.626;2023-04-06T01:50:21;1.35;;;1.25;;
2362;SDS011;64265;51.664;7.626;2023-04-06T01:52:48;1.50;;;1.20;;
2362;SDS011;64265;51.664;7.626;2023-04-06T01:55:15;1.55;;;1.30;;
2362;SDS011;64265;51.664;7.626;2023-04-06T01:57:43;1.42;;;1.30;;
2362;SDS011;64265;51.664;7.626;2023-04-06T02:00:12;1.35;;;1.25;;
2362;SDS011;64265;51.664;7.626;2023-04-06T02:02:39;1.20;;;1.10;;
2362;SDS011;64265;51.664;7.626;2023-04-06T02:05:06;1.30;;;1.08;;
2362;SDS011;64265;51.664;7.626;2023-04-06T02:07:33;1.20;;;1.08;;
2362;SDS011;64265;51.664;7.626;2023-04-06T02:10:00;1.00;;;0.80;;
2362;SDS011;64265;51.664;7.626;2023-04-06T02:12:26;1.00;;;0.80;;
2362;SDS011;64265;51.664;7.626;2023-04-06T02:14:54;1.30;;;1.20;;
2362;SDS011;64265;51.664;7.626;2023-04-06T02:17:21;1.85;;;1.27;;
2362;SDS011;64265;51.664;7.626;2023-04-06T02:19:48;1.23;;;1.13;;
2362;SDS011;64265;51.664;7.626;2023-04-06T02:22:21;2.00;;;1.05;;
2362;SDS011;64265;51.664;7.626;2023-04-06T02:24:47;1.27;;;1.00;;
2362;SDS011;64265;51.664;7.626;2023-04-06T02:27:14;1.15;;;0.90;;
2362;SDS011;64265;51.664;7.626;2023-04-06T02:29:41;1.15;;;1.05;;
2362;SDS011;64265;51.664;7.626;2023-04-06T02:32:09;1.30;;;1.00;;
2362;SDS011;64265;51.664;7.626;2023-04-06T02:34:36;1.30;;;1.00;;
2362;SDS011;64265;51.664;7.626;2023-04-06T02:37:02;2.80;;;1.08;;
2362;SDS011;64265;51.664;7.626;2023-04-06T02:39:29;1.30;;;1.08;;
2362;SDS011;64265;51.664;7.626;2023-04-06T02:41:55;1.58;;;1.48;;
2362;SDS011;64265;51.664;7.626;2023-04-06T02:44:23;1.17;;;1.00;;
2362;SDS011;64265;51.664;7.626;2023-04-06T02:46:49;1.40;;;1.10;;
2362;SDS011;64265;51.664;7.626;2023-04-06T02:49:17;1.88;;;1.17;;
2362;SDS011;64265;51.664;7.626;2023-04-06T02:51:44;1.10;;;1.00;;
2362;SDS011;64265;51.664;7.626;2023-04-06T02:54:11;1.67;;;1.10;;
2362;SDS011;64265;51.664;7.626;2023-04-06T02:56:37;1.20;;;1.00;;
2362;SDS011;64265;51.664;7.626;2023-04-06T02:59:04;1.20;;;1.05;;
2362;SDS011;64265;51.664;7.626;2023-04-06T03:01:31;1.60;;;1.35;;
2362;SDS011;64265;51.664;7.626;2023-04-06T03:03:58;1.50;;;1.38;;
2362;SDS011;64265;51.664;7.626;2023-04-06T03:06:26;1.30;;;1.10;;
2362;SDS011;64265;51.664;7.626;2023-04-06T03:08:53;1.20;;;1.10;;
2362;SDS011;64265;51.664;7.626;2023-04-06T03:11:19;1.60;;;1.27;;
2362;SDS011;64265;51.664;7.626;2023-04-06T03:13:46;2.42;;;1.27;;
2362;SDS011;64265;51.664;7.626;2023-04-06T03:16:13;1.27;;;1.00;;
2362;SDS011;64265;51.664;7.626;2023-04-06T03:18:39;1.83;;;1.20;;
2362;SDS011;64265;51.664;7.626;2023-04-06T03:21:06;1.50;;;1.30;;
2362;SDS011;64265;51.664;7.626;2023-04-06T03:23:34;1.30;;;1.10;;
2362;SDS011;64265;51.664;7.626;2023-04-06T03:26:01;1.92;;;1.38;;
2362;SDS011;64265;51.664;7.626;2023-04-06T03:28:28;1.50;;;1.40;;
2362;SDS011;64265;51.664;7.626;2023-04-06T03:30:55;1.35;;;1.25;;
2362;SDS011;64265;51.664;7.626;2023-04-06T03:33:22;2.97;;;1.80;;
2362;SDS011;64265;51.664;7.626;2023-04-06T03:35:48;1.45;;;1.35;;
2362;SDS011;64265;51.664;7.626;2023-04-06T03:38:15;1.30;;;1.20;;
2362;SDS011;64265;51.664;7.626;2023-04-06T03:40:43;1.10;;;1.00;;
2362;SDS011;64265;51.664;7.626;2023-04-06T03:43:10;1.30;;;1.20;;
2362;SDS011;64265;51.664;7.626;2023-04-06T03:45:36;1.20;;;1.05;;
2362;SDS011;64265;51.664;7.626;2023-04-06T03:48:03;1.33;;;1.10;;
2362;SDS011;64265;51.664;7.626;2023-04-06T03:50:30;1.15;;;1.05;;
2362;SDS011;64265;51.664;7.626;2023-04-06T03:52:57;1.55;;;1.30;;
2362;SDS011;64265;51.664;7.626;2023-04-06T03:55:24;1.10;;;1.00;;
2362;SDS011;64265;51.664;7.626;2023-04-06T03:57:52;1.25;;;1.15;;
2362;SDS011;64265;51.664;7.626;2023-04-06T04:00:18;1.30;;;1.00;;
2362;SDS011;64265;51.664;7.626;2023-04-06T04:02:45;1.15;;;0.98;;
2362;SDS011;64265;51.664;7.626;2023-04-06T04:05:12;1.48;;;1.15;;
2362;SDS011;64265;51.664;7.626;2023-04-06T04:07:39;1.10;;;1.00;;
2362;SDS011;64265;51.664;7.626;2023-04-06T04:10:06;3.78;;;1.30;;
2362;SDS011;64265;51.664;7.626;2023-04-06T04:12:33;1.35;;;1.20;;
2362;SDS011;64265;51.664;7.626;2023-04-06T04:15:01;1.67;;;1.30;;
2362;SDS011;64265;51.664;7.626;2023-04-06T04:17:28;1.25;;;1.00;;
2362;SDS011;64265;51.664;7.626;2023-04-06T04:19:54;1.02;;;0.93;;
2362;SDS011;64265;51.664;7.626;2023-04-06T04:22:21;1.60;;;1.30;;
2362;SDS011;64265;51.664;7.626;2023-04-06T04:24:48;1.33;;;0.77;;
2362;SDS011;64265;51.664;7.626;2023-04-06T04:27:14;1.25;;;0.98;;
2362;SDS011;64265;51.664;7.626;2023-04-06T04:29:41;1.08;;;0.90;;
2362;SDS011;64265;51.664;7.626;2023-04-06T04:32:10;1.58;;;1.48;;
2362;SDS011;64265;51.664;7.626;2023-04-06T04:34:36;1.20;;;1.10;;
2362;SDS011;64265;51.664;7.626;2023-04-06T04:37:05;1.25;;;1.10;;
2362;SDS011;64265;51.664;7.626;2023-04-06T04:39:31;1.20;;;1.00;;
2362;SDS011;64265;51.664;7.626;2023-04-06T04:41:58;1.25;;;1.15;;
2362;SDS011;64265;51.664;7.626;2023-04-06T04:44:25;1.38;;;1.27;;
2362;SDS011;64265;51.664;7.626;2023-04-06T04:46:51;1.50;;;1.10;;
2362;SDS011;64265;51.664;7.626;2023-04-06T04:49:19;1.10;;;1.00;;
2362;SDS011;64265;51.664;7.626;2023-04-06T04:51:46;1.48;;;1.30;;
2362;SDS011;64265;51.664;7.626;2023-04-06T04:54:13;1.00;;;0.90;;
2362;SDS011;64265;51.664;7.626;2023-04-06T04:56:39;1.13;;;1.02;;
2362;SDS011;64265;51.664;7.626;2023-04-06T04:59:06;1.25;;;1.08;;
2362;SDS011;64265;51.664;7.626;2023-04-06T05:01:33;1.23;;;1.13;;
2362;SDS011;64265;51.664;7.626;2023-04-06T05:03:59;4.43;;;1.00;;
2362;SDS011;64265;51.664;7.626;2023-04-06T05:06:27;1.25;;;1.15;;
2362;SDS011;64265;51.664;7.626;2023-04-06T05:08:54;1.08;;;0.82;;
2362;SDS011;64265;51.664;7.626;2023-04-06T05:11:21;1.45;;;1.10;;
2362;SDS011;64265;51.664;7.626;2023-04-06T05:13:48;0.90;;;0.80;;
2362;SDS011;64265;51.664;7.626;2023-04-06T05:16:15;1.20;;;1.10;;
2362;SDS011;64265;51.664;7.626;2023-04-06T05:18:42;1.10;;;1.00;;
2362;SDS011;64265;51.664;7.626;2023-04-06T05:21:09;1.75;;;1.10;;
2362;SDS011;64265;51.664;7.626;2023-04-06T05:23:38;1.35;;;1.10;;
2362;SDS011;64265;51.664;7.626;2023-04-06T05:26:04;1.15;;;1.05;;
2362;SDS011;64265;51.664;7.626;2023-04-06T05:28:31;3.05;;;1.00;;
2362;SDS011;64265;51.664;7.626;2023-04-06T05:30:58;1.13;;;1.02;;
2362;SDS011;64265;51.664;7.626;2023-04-06T05:33:25;1.15;;;0.90;;
2362;SDS011;64265;51.664;7.626;2023-04-06T05:35:52;1.25;;;0.90;;
2362;SDS011;64265;51.664;7.626;2023-04-06T05:38:19;1.30;;;1.00;;
2362;SDS011;64265;51.664;7.626;2023-04-06T05:40:47;1.05;;;0.82;;
2362;SDS011;64265;51.664;7.626;2023-04-06T05:43:14;1.10;;;0.90;;
2362;SDS011;64265;51.664;7.626;2023-04-06T05:45:40;0.93;;;0.82;;
2362;SDS011;64265;51.664;7.626;2023-04-06T05:48:09;1.60;;;1.25;;
2362;SDS011;64265;51.664;7.626;2023-04-06T05:50:36;1.30;;;1.00;;
2362;SDS011;64265;51.664;7.626;2023-04-06T05:53:03;1.45;;;1.13;;
2362;SDS011;64265;51.664;7.626;2023-04-06T05:55:29;1.00;;;0.90;;
2362;SDS011;64265;51.664;7.626;2023-04-06T05:57:57;1.50;;;1.00;;
2362;SDS011;64265;51.664;7.626;2023-04-06T06:00:24;1.10;;;0.95;;
2362;SDS011;64265;51.664;7.626;2023-04-06T06:02:51;1.10;;;1.00;;
2362;SDS011;64265;51.664;7.626;2023-04-06T06:05:17;1.50;;;1.10;;
2362;SDS011;64265;51.664;7.626;2023-04-06T06:07:44;1.20;;;1.08;;
2362;SDS011;64265;51.664;7.626;2023-04-06T06:10:11;1.30;;;0.95;;
2362;SDS011;64265;51.664;7.626;2023-04-06T06:12:38;1.00;;;0.90;;
2362;SDS011;64265;51.664;7.626;2023-04-06T06:15:06;1.25;;;1.10;;
2362;SDS011;64265;51.664;7.626;2023-04-06T06:17:33;1.05;;;0.90;;
2362;SDS011;64265;51.664;7.626;2023-04-06T06:20:00;1.20;;;1.10;;
2362;SDS011;64265;51.664;7.626;2023-04-06T06:22:27;1.38;;;1.15;;
2362;SDS011;64265;51.664;7.626;2023-04-06T06:24:54;1.10;;;1.00;;
2362;SDS011;64265;51.664;7.626;2023-04-06T06:27:20;1.48;;;0.98;;
2362;SDS011;64265;51.664;7.626;2023-04-06T06:29:47;1.25;;;1.15;;
2362;SDS011;64265;51.664;7.626;2023-04-06T06:32:15;1.20;;;1.10;;
2362;SDS011;64265;51.664;7.626;2023-04-06T06:34:42;1.30;;;1.15;;
2362;SDS011;64265;51.664;7.626;2023-04-06T06:37:09;2.35;;;1.15;;
2362;SDS011;64265;51.664;7.626;2023-04-06T06:39:35;1.40;;;1.30;;
2362;SDS011;64265;51.664;7.626;2023-04-06T06:42:02;1.20;;;1.00;;
2362;SDS011;64265;51.664;7.626;2023-04-06T06:44:29;1.20;;;0.90;;
2362;SDS011;64265;51.664;7.626;2023-04-06T06:46:55;1.05;;;0.95;;
2362;SDS011;64265;51.664;7.626;2023-04-06T06:49:23;1.70;;;1.10;;
2362;SDS011;64265;51.664;7.626;2023-04-06T06:51:50;1.00;;;0.88;;
2362;SDS011;64265;51.664;7.626;2023-04-06T06:54:17;2.30;;;1.35;;
2362;SDS011;64265;51.664;7.626;2023-04-06T06:56:43;1.58;;;1.25;;
2362;SDS011;64265;51.664;7.626;2023-04-06T06:59:10;1.20;;;1.05;;
2362;SDS011;64265;51.664;7.626;2023-04-06T07:01:37;1.33;;;1.05;;
2362;SDS011;64265;51.664;7.626;2023-04-06T07:04:03;1.10;;;0.95;;
2362;SDS011;64265;51.664;7.626;2023-04-06T07:06:32;1.30;;;1.20;;
2362;SDS011;64265;51.664;7.626;2023-04-06T07:08:58;1.20;;;0.98;;
2362;SDS011;64265;51.664;7.626;2023-04-06T07:11:25;1.40;;;1.30;;
2362;SDS011;64265;51.664;7.626;2023-04-06T07:13:52;2.80;;;1.10;;
2362;SDS011;64265;51.664;7.626;2023-04-06T07:16:18;1.20;;;1.10;;
2362;SDS011;64265;51.664;7.626;2023-04-06T07:18:45;1.45;;;1.10;;
2362;SDS011;64265;51.664;7.626;2023-04-06T07:21:12;1.67;;;1.10;;
2362;SDS011;64265;51.664;7.626;2023-04-06T07:23:40;1.42;;;1.30;;
2362;SDS011;64265;51.664;7.626;2023-04-06T07:26:06;1.30;;;1.20;;
2362;SDS011;64265;51.664;7.626;2023-04-06T07:28:33;1.38;;;1.23;;
2362;SDS011;64265;51.664;7.626;2023-04-06T07:31:00;1.83;;;1.02;;
2362;SDS011;64265;51.664;7.626;2023-04-06T07:33:26;1.70;;;1.45;;
2362;SDS011;64265;51.664;7.626;2023-04-06T07:35:54;1.67;;;1.58;;
2362;SDS011;64265;51.664;7.626;2023-04-06T07:38:21;1.10;;;0.90;;
2362;SDS011;64265;51.664;7.626;2023-04-06T07:40:49;1.63;;;1.42;;
2362;SDS011;64265;51.664;7.626;2023-04-06T07:43:16;2.03;;;1.20;;
2362;SDS011;64265;51.664;7.626;2023-04-06T07:45:42;1.23;;;1.10;;
2362;SDS011;64265;51.664;7.626;2023-04-06T07:48:10;1.15;;;1.05;;
2362;SDS011;64265;51.664;7.626;2023-04-06T07:50:38;1.75;;;1.20;;
2362;SDS011;64265;51.664;7.626;2023-04-06T07:53:04;1.77;;;1.42;;
2362;SDS011;64265;51.664;7.626;2023-04-06T07:55:31;1.50;;;1.23;;
2362;SDS011;64265;51.664;7.626;2023-04-06T07:57:59;1.23;;;1.13;;
2362;SDS011;64265;51.664;7.626;2023-04-06T08:00:26;1.20;;;1.10;;
2362;SDS011;64265;51.664;7.626;2023-04-06T08:02:52;1.42;;;1.33;;
2362;SDS011;64265;51.664;7.626;2023-04-06T08:05:19;3.22;;;1.50;;
2362;SDS011;64265;51.664;7.626;2023-04-06T08:07:46;4.03;;;1.52;;
2362;SDS011;64265;51.664;7.626;2023-04-06T08:10:13;1.85;;;1.63;;
2362;SDS011;64265;51.664;7.626;2023-04-06T08:12:39;1.48;;;1.35;;
2362;SDS011;64265;51.664;7.626;2023-04-06T08:15:08;1.50;;;1.40;;
2362;SDS011;64265;51.664;7.626;2023-04-06T08:17:35;1.30;;;1.20;;
2362;SDS011;64265;51.664;7.626;2023-04-06T08:20:02;2.38;;;1.30;;
2362;SDS011;64265;51.664;7.626;2023-04-06T08:22:29;1.23;;;1.13;;
2362;SDS011;64265;51.664;7.626;2023-04-06T08:24:56;1.30;;;1.00;;
2362;SDS011;64265;51.664;7.626;2023-04-06T08:27:22;1.40;;;1.20;;
2362;SDS011;64265;51.664;7.626;2023-04-06T08:29:49;2.97;;;1.00;;
2362;SDS011;64265;51.664;7.626;2023-04-06T08:32:17;2.38;;;1.30;;
2362;SDS011;64265;51.664;7.626;2023-04-06T08:34:44;2.63;;;1.30;;
2362;SDS011;64265;51.664;7.626;2023-04-06T08:37:11;3.20;;;1.42;;
2362;SDS011;64265;51.664;7.626;2023-04-06T08:39:37;6.85;;;1.20;;
2362;SDS011;64265;51.664;7.626;2023-04-06T08:42:10;1.63;;;1.05;;
2362;SDS011;64265;51.664;7.626;2023-04-06T08:44:39;3.30;;;1.27;;
2362;SDS011;64265;51.664;7.626;2023-04-06T08:47:06;1.60;;;1.15;;
2362;SDS011;64265;51.664;7.626;2023-04-06T08:49:35;1.75;;;1.10;;
2362;SDS011;64265;51.664;7.626;2023-04-06T08:52:04;1.20;;;1.08;;
2362;SDS011;64265;51.664;7.626;2023-04-06T08:54:32;2.33;;;1.15;;
2362;SDS011;64265;51.664;7.626;2023-04-06T08:56:59;2.00;;;1.08;;
2362;SDS011;64265;51.664;7.626;2023-04-06T08:59:26;3.15;;;1.30;;
2362;SDS011;64265;51.664;7.626;2023-04-06T09:01:54;1.30;;;1.20;;
2362;SDS011;64265;51.664;7.626;2023-04-06T09:04:21;5.35;;;1.42;;
2362;SDS011;64265;51.664;7.626;2023-04-06T09:06:49;1.50;;;1.30;;
2362;SDS011;64265;51.664;7.626;2023-04-06T09:09:17;14.50;;;1.63;;
2362;SDS011;64265;51.664;7.626;2023-04-06T09:11:44;5.32;;;1.73;;
2362;SDS011;64265;51.664;7.626;2023-04-06T09:14:12;2.80;;;1.13;;
2362;SDS011;64265;51.664;7.626;2023-04-06T09:16:40;4.53;;;1.35;;
2362;SDS011;64265;51.664;7.626;2023-04-06T09:19:07;5.07;;;1.40;;
2362;SDS011;64265;51.664;7.626;2023-04-06T09:21:34;3.20;;;1.17;;
2362;SDS011;64265;51.664;7.626;2023-04-06T09:24:03;2.80;;;1.30;;
2362;SDS011;64265;51.664;7.626;2023-04-06T09:26:30;3.35;;;1.33;;
2362;SDS011;64265;51.664;7.626;2023-04-06T09:28:58;3.95;;;1.10;;
2362;SDS011;64265;51.664;7.626;2023-04-06T09:31:26;3.15;;;2.00;;
2362;SDS011;64265;51.664;7.626;2023-04-06T09:33:54;2.80;;;1.15;;
2362;SDS011;64265;51.664;7.626;2023-04-06T09:36:29;3.53;;;1.30;;
2362;SDS011;64265;51.664;7.626;2023-04-06T09:38:56;2.45;;;1.40;;
2362;SDS011;64265;51.664;7.626;2023-04-06T09:41:26;1.20;;;1.10;;
2362;SDS011;64265;51.664;7.626;2023-04-06T09:44:01;1.40;;;1.20;;
2362;SDS011;64265;51.664;7.626;2023-04-06T09:46:30;1.35;;;1.25;;
2362;SDS011;64265;51.664;7.626;2023-04-06T09:48:59;1.15;;;1.02;;
2362;SDS011;64265;51.664;7.626;2023-04-06T09:51:27;1.30;;;1.10;;
2362;SDS011;64265;51.664;7.626;2023-04-06T09:53:57;1.30;;;1.17;;
2362;SDS011;64265;51.664;7.626;2023-04-06T09:56:30;1.10;;;0.90;;
2362;SDS011;64265;51.664;7.626;2023-04-06T09:59:05;1.10;;;1.00;;
2362;SDS011;64265;51.664;7.626;2023-04-06T10:01:38;1.70;;;1.57;;
2362;SDS011;64265;51.664;7.626;2023-04-06T10:04:10;1.47;;;1.03;;
2362;SDS011;64265;51.664;7.626;2023-04-06T10:06:46;7.70;;;5.90;;
2362;SDS011;64265;51.664;7.626;2023-04-06T10:09:17;11.00;;;7.40;;
2362;SDS011;64265;51.664;7.626;2023-04-06T10:11:46;4.55;;;4.15;;
2362;SDS011;64265;51.664;7.626;2023-04-06T10:14:15;3.60;;;3.28;;
2362;SDS011;64265;51.664;7.626;2023-04-06T10:16:42;3.67;;;2.50;;
2362;SDS011;64265;51.664;7.626;2023-04-06T10:19:10;2.55;;;2.35;;
2362;SDS011;64265;51.664;7.626;2023-04-06T10:21:42;2.33;;;1.77;;
2362;SDS011;64265;51.664;7.626;2023-04-06T10:24:11;2.13;;;1.93;;
2362;SDS011;64265;51.664;7.626;2023-04-06T10:26:38;2.67;;;2.40;;
2362;SDS011;64265;51.664;7.626;2023-04-06T10:29:07;3.97;;;2.33;;
2362;SDS011;64265;51.664;7.626;2023-04-06T10:31:39;2.63;;;1.90;;
2362;SDS011;64265;51.664;7.626;2023-04-06T10:34:08;3.08;;;1.70;;
2362;SDS011;64265;51.664;7.626;2023-04-06T10:36:34;2.33;;;2.13;;
2362;SDS011;64265;51.664;7.626;2023-04-06T10:39:02;4.10;;;1.90;;
2362;SDS011;64265;51.664;7.626;2023-04-06T10:41:34;2.00;;;1.42;;
2362;SDS011;64265;51.664;7.626;2023-04-06T10:44:01;3.10;;;1.40;;
2362;SDS011;64265;51.664;7.626;2023-04-06T10:46:30;2.20;;;1.23;;
2362;SDS011;64265;51.664;7.626;2023-04-06T10:48:57;3.00;;;2.03;;
2362;SDS011;64265;51.664;7.626;2023-04-06T10:51:25;2.20;;;1.63;;
2362;SDS011;64265;51.664;7.626;2023-04-06T10:53:54;2.08;;;1.73;;
2362;SDS011;64265;51.664;7.626;2023-04-06T10:56:22;3.40;;;1.90;;
2362;SDS011;64265;51.664;7.626;2023-04-06T10:58:51;2.37;;;1.40;;
2362;SDS011;64265;51.664;7.626;2023-04-06T11:01:21;1.67;;;1.58;;
2362;SDS011;64265;51.664;7.626;2023-04-06T11:03:51;1.80;;;1.27;;
2362;SDS011;64265;51.664;7.626;2023-04-06T11:06:19;3.47;;;1.57;;
2362;SDS011;64265;51.664;7.626;2023-04-06T11:08:46;2.03;;;1.30;;
2362;SDS011;64265;51.664;7.626;2023-04-06T11:11:13;2.03;;;1.40;;
2362;SDS011;64265;51.664;7.626;2023-04-06T11:13:48;2.53;;;1.40;;
2362;SDS011;64265;51.664;7.626;2023-04-06T11:16:16;1.13;;;1.00;;
2362;SDS011;64265;51.664;7.626;2023-04-06T11:18:52;3.30;;;1.10;;
2362;SDS011;64265;51.664;7.626;2023-04-06T11:21:31;1.00;;;0.90;;
2362;SDS011;64265;51.664;7.626;2023-04-06T11:24:06;1.97;;;1.43;;
2362;SDS011;64265;51.664;7.626;2023-04-06T11:26:36;2.00;;;1.50;;
2362;SDS011;64265;51.664;7.626;2023-04-06T11:29:07;1.97;;;1.50;;
2362;SDS011;64265;51.664;7.626;2023-04-06T11:31:37;1.90;;;1.60;;
2362;SDS011;64265;51.664;7.626;2023-04-06T11:34:10;1.97;;;1.30;;
2362;SDS011;64265;51.664;7.626;2023-04-06T11:36:42;1.37;;;1.27;;
2362;SDS011;64265;51.664;7.626;2023-04-06T11:39:10;2.53;;;1.40;;
2362;SDS011;64265;51.664;7.626;2023-04-06T11:41:37;1.23;;;1.10;;
2362;SDS011;64265;51.664;7.626;2023-04-06T11:44:04;1.50;;;1.30;;
2362;SDS011;64265;51.664;7.626;2023-04-06T11:46:32;2.70;;;1.20;;
2362;SDS011;64265;51.664;7.626;2023-04-06T11:48:58;2.63;;;1.27;;
2362;SDS011;64265;51.664;7.626;2023-04-06T11:51:27;1.37;;;1.20;;
2362;SDS011;64265;51.664;7.626;2023-04-06T11:53:54;2.13;;;1.10;;
2362;SDS011;64265;51.664;7.626;2023-04-06T11:56:25;2.10;;;1.30;;
2362;SDS011;64265;51.664;7.626;2023-04-06T11:58:54;1.40;;;1.20;;
2362;SDS011;64265;51.664;7.626;2023-04-06T12:01:21;1.20;;;1.10;;
2362;SDS011;64265;51.664;7.626;2023-04-06T12:03:48;1.20;;;1.00;;
2362;SDS011;64265;51.664;7.626;2023-04-06T12:06:15;2.37;;;1.10;;
2362;SDS011;64265;51.664;7.626;2023-04-06T12:08:43;1.33;;;0.93;;
2362;SDS011;64265;51.664;7.626;2023-04-06T12:11:10;1.77;;;1.27;;
2362;SDS011;64265;51.664;7.626;2023-04-06T12:13:36;1.70;;;1.20;;
2362;SDS011;64265;51.664;7.626;2023-04-06T12:16:03;1.13;;;1.03;;
2362;SDS011;64265;51.664;7.626;2023-04-06T12:18:31;1.20;;;1.00;;
2362;SDS011;64265;51.664;7.626;2023-04-06T12:20:58;1.63;;;1.27;;
2362;SDS011;64265;51.664;7.626;2023-04-06T12:23:24;1.40;;;1.30;;
2362;SDS011;64265;51.664;7.626;2023-04-06T12:25:52;1.40;;;0.97;;
2362;SDS011;64265;51.664;7.626;2023-04-06T12:28:20;1.20;;;1.10;;
2362;SDS011;64265;51.664;7.626;2023-04-06T12:30:48;1.57;;;1.20;;
2362;SDS011;64265;51.664;7.626;2023-04-06T12:33:16;1.43;;;1.13;;
2362;SDS011;64265;51.664;7.626;2023-04-06T12:35:42;1.23;;;1.13;;
2362;SDS011;64265;51.664;7.626;2023-04-06T12:38:09;1.47;;;1.37;;
2362;SDS011;64265;51.664;7.626;2023-04-06T12:40:36;1.20;;;1.10;;
2362;SDS011;64265;51.664;7.626;2023-04-06T12:43:05;1.90;;;1.10;;
2362;SDS011;64265;51.664;7.626;2023-04-06T12:45:35;1.10;;;1.00;;
2362;SDS011;64265;51.664;7.626;2023-04-06T12:48:02;4.57;;;1.30;;
2362;SDS011;64265;51.664;7.626;2023-04-06T12:50:30;1.45;;;1.05;;
2362;SDS011;64265;51.664;7.626;2023-04-06T12:52:57;1.37;;;0.97;;
2362;SDS011;64265;51.664;7.626;2023-04-06T12:55:24;1.07;;;0.90;;
2362;SDS011;64265;51.664;7.626;2023-04-06T12:57:51;1.43;;;1.23;;
2362;SDS011;64265;51.664;7.626;2023-04-06T13:00:20;1.33;;;1.00;;
2362;SDS011;64265;51.664;7.626;2023-04-06T13:02:47;1.30;;;1.10;;
2362;SDS011;64265;51.664;7.626;2023-04-06T13:05:14;1.33;;;1.23;;
2362;SDS011;64265;51.664;7.626;2023-04-06T13:07:43;1.20;;;1.00;;
2362;SDS011;64265;51.664;7.626;2023-04-06T13:10:11;1.30;;;1.07;;
2362;SDS011;64265;51.664;7.626;2023-04-06T13:12:38;1.43;;;1.17;;
2362;SDS011;64265;51.664;7.626;2023-04-06T13:15:05;1.10;;;1.00;;
2362;SDS011;64265;51.664;7.626;2023-04-06T13:17:33;2.20;;;1.07;;
2362;SDS011;64265;51.664;7.626;2023-04-06T13:20:00;1.30;;;1.10;;
2362;SDS011;64265;51.664;7.626;2023-04-06T13:22:28;1.27;;;1.17;;
2362;SDS011;64265;51.664;7.626;2023-04-06T13:24:55;1.27;;;1.03;;
2362;SDS011;64265;51.664;7.626;2023-04-06T13:27:21;1.75;;;1.17;;
2362;SDS011;64265;51.664;7.626;2023-04-06T13:29:48;1.87;;;1.40;;
2362;SDS011;64265;51.664;7.626;2023-04-06T13:32:15;1.27;;;1.17;;
2362;SDS011;64265;51.664;7.626;2023-04-06T13:34:43;1.40;;;0.93;;
2362;SDS011;64265;51.664;7.626;2023-04-06T13:37:11;1.43;;;1.20;;
2362;SDS011;64265;51.664;7.626;2023-04-06T13:39:38;1.10;;;1.00;;
2362;SDS011;64265;51.664;7.626;2023-04-06T13:42:04;6.57;;;1.57;;
2362;SDS011;64265;51.664;7.626;2023-04-06T13:44:31;1.43;;;1.20;;
2362;SDS011;64265;51.664;7.626;2023-04-06T13:46:58;1.30;;;1.10;;
2362;SDS011;64265;51.664;7.626;2023-04-06T13:49:25;2.30;;;1.20;;
2362;SDS011;64265;51.664;7.626;2023-04-06T13:51:53;1.13;;;0.93;;
2362;SDS011;64265;51.664;7.626;2023-04-06T13:54:20;1.50;;;1.03;;
2362;SDS011;64265;51.664;7.626;2023-04-06T13:56:47;1.00;;;0.90;;
2362;SDS011;64265;51.664;7.626;2023-04-06T13:59:13;1.20;;;0.90;;
2362;SDS011;64265;51.664;7.626;2023-04-06T14:01:40;2.67;;;1.17;;
2362;SDS011;64265;51.664;7.626;2023-04-06T14:04:07;1.40;;;0.93;;
2362;SDS011;64265;51.664;7.626;2023-04-06T14:06:34;1.57;;;1.07;;
2362;SDS011;64265;51.664;7.626;2023-04-06T14:09:02;1.87;;;1.10;;
2362;SDS011;64265;51.664;7.626;2023-04-06T14:11:29;1.23;;;1.07;;
2362;SDS011;64265;51.664;7.626;2023-04-06T14:13:56;1.63;;;1.20;;
2362;SDS011;64265;51.664;7.626;2023-04-06T14:16:23;1.20;;;1.10;;
2362;SDS011;64265;51.664;7.626;2023-04-06T14:18:51;1.10;;;1.00;;
2362;SDS011;64265;51.664;7.626;2023-04-06T14:21:17;1.30;;;0.87;;
2362;SDS011;64265;51.664;7.626;2023-04-06T14:23:44;1.00;;;0.90;;
2362;SDS011;64265;51.664;7.626;2023-04-06T14:26:13;1.57;;;1.10;;
2362;SDS011;64265;51.664;7.626;2023-04-06T14:28:40;1.40;;;0.97;;
2362;SDS011;64265;51.664;7.626;2023-04-06T14:31:09;1.10;;;1.00;;
2362;SDS011;64265;51.664;7.626;2023-04-06T14:33:38;1.42;;;0.90;;
2362;SDS011;64265;51.664;7.626;2023-04-06T14:36:05;1.20;;;0.95;;
2362;SDS011;64265;51.664;7.626;2023-04-06T14:38:33;2.23;;;1.27;;
2362;SDS011;64265;51.664;7.626;2023-04-06T14:41:00;3.93;;;1.00;;
2362;SDS011;64265;51.664;7.626;2023-04-06T14:43:28;1.20;;;0.80;;
2362;SDS011;64265;51.664;7.626;2023-04-06T14:45:58;1.50;;;1.13;;
2362;SDS011;64265;51.664;7.626;2023-04-06T14:48:26;3.83;;;1.00;;
2362;SDS011;64265;51.664;7.626;2023-04-06T14:50:52;1.23;;;0.90;;
2362;SDS011;64265;51.664;7.626;2023-04-06T14:53:19;1.20;;;1.00;;
2362;SDS011;64265;51.664;7.626;2023-04-06T14:55:46;1.67;;;1.00;;
2362;SDS011;64265;51.664;7.626;2023-04-06T14:58:14;0.90;;;0.80;;
2362;SDS011;64265;51.664;7.626;2023-04-06T15:00:42;1.50;;;1.07;;
2362;SDS011;64265;51.664;7.626;2023-04-06T15:03:09;0.90;;;0.73;;